Time;durP1;ratioP1;P1;durP2;ratioP2;P2;SDS_P1;SDS_P2;PMS_P1;PMS_P2;Temp;Humidity;BMP_temperature;BMP_pressure;BME280_temperature;BME280_humidity;BME280_pressure;Samples;Min_cycle;Max_cycle;Signal;HPM_P1;HPM_P2
2022/04/02 00:00:40;;;;;;;;;18.00;17.00;;;;;4.71;60.48;100781.88;4990813;28;46136;-83
2022/04/02 00:03:05;;;;;;;;;16.50;15.50;;;;;4.96;60.48;100829.34;4990923;28;45464;-83
2022/04/02 00:05:31;;;;;;;;;13.50;12.50;;;;;4.90;60.52;100821.19;4973353;28;45492;-83
2022/04/02 00:07:56;;;;;;;;;14.00;11.00;;;;;4.75;60.57;100797.75;4990665;28;45526;-83
2022/04/02 00:10:22;;;;;;;;;15.75;13.75;;;;;4.74;60.55;100787.28;4972698;28;48300;-83
2022/04/02 00:12:47;;;;;;;;;13.00;12.00;;;;;4.77;59.95;100797.84;4973334;28;45856;-83
2022/04/02 00:15:13;;;;;;;;;15.25;14.00;;;;;4.69;59.92;100796.53;4972732;28;45374;-83
2022/04/02 00:17:38;;;;;;;;;11.25;10.00;;;;;4.73;60.01;100801.06;4990987;28;45799;-82
2022/04/02 00:20:04;;;;;;;;;14.25;13.50;;;;;4.04;59.73;100677.31;4972534;28;48326;-83
2022/04/02 00:22:32;;;;;;;;;12.25;11.00;;;;;4.69;60.12;100809.53;4990040;28;45732;-83
2022/04/02 00:24:57;;;;;;;;;9.00;9.00;;;;;4.76;60.08;100827.28;4990368;28;45472;-83
2022/04/02 00:27:23;;;;;;;;;9.75;8.50;;;;;4.77;60.17;100823.88;4990779;28;45465;-83
2022/04/02 00:29:49;;;;;;;;;12.25;10.00;;;;;4.90;59.90;100855.94;4972094;28;48012;-83
2022/04/02 00:32:17;;;;;;;;;10.50;10.50;;;;;4.80;59.69;100855.31;4990525;28;45590;-82
2022/04/02 00:34:42;;;;;;;;;10.75;9.75;;;;;4.50;59.73;100818.84;4973122;28;45432;-83
2022/04/02 00:37:08;;;;;;;;;10.00;10.00;;;;;4.68;59.71;100838.94;4972082;28;45826;-83
2022/04/02 00:39:33;;;;;;;;;8.00;8.00;;;;;4.40;59.16;100806.97;4990488;28;45690;-83
2022/04/02 00:41:59;;;;;;;;;10.00;10.00;;;;;4.57;59.55;100844.41;4990407;28;45574;-83
2022/04/02 00:44:26;;;;;;;;;9.00;8.25;;;;;4.23;59.62;100783.34;4972391;28;45307;-82
2022/04/02 00:46:54;;;;;;;;;9.00;7.00;;;;;4.59;59.31;100849.72;4990744;28;44847;-83
2022/04/02 00:49:20;;;;;;;;;9.25;8.00;;;;;4.55;59.28;100850.34;4972308;28;47239;-83
2022/04/02 00:51:46;;;;;;;;;6.00;6.00;;;;;4.35;59.34;100799.72;4989951;28;45320;-82
2022/04/02 00:54:16;;;;;;;;;9.75;8.50;;;;;4.48;58.99;100837.75;4972320;28;45450;-83
2022/04/02 00:56:43;;;;;;;;;7.00;6.75;;;;;4.34;58.79;100822.22;4990328;28;45745;-83
2022/04/02 00:59:09;;;;;;;;;5.00;5.00;;;;;3.97;58.47;100761.88;4989606;28;45415;-83
2022/04/02 01:01:35;;;;;;;;;7.75;6.75;;;;;4.47;58.59;100844.66;4990202;28;45454;-83
2022/04/02 01:04:02;;;;;;;;;8.75;6.25;;;;;4.44;58.48;100833.22;4990128;28;45532;-83
2022/04/02 01:06:30;;;;;;;;;5.75;5.75;;;;;4.21;58.69;100792.78;4989902;28;45548;-83
2022/04/02 01:08:56;;;;;;;;;7.25;6.00;;;;;4.44;58.61;100834.09;4989915;28;45546;-82
2022/04/02 01:11:22;;;;;;;;;6.00;5.75;;;;;4.45;58.35;100843.69;4989795;28;46017;-83
2022/04/02 01:13:47;;;;;;;;;7.00;7.00;;;;;4.27;58.14;100809.66;4990247;28;45425;-83
2022/04/02 01:16:13;;;;;;;;;4.50;4.50;;;;;4.12;58.11;100775.78;4989610;28;45447;-83
2022/04/02 01:18:39;;;;;;;;;5.25;5.00;;;;;4.03;57.96;100759.63;4972046;28;47335;-83
2022/04/02 01:21:04;;;;;;;;;5.50;5.50;;;;;4.19;57.76;100792.69;4989656;28;45666;-83
2022/04/02 01:23:30;;;;;;;;;5.00;4.25;;;;;4.13;57.66;100788.00;4989557;28;45702;-83
2022/04/02 01:25:57;;;;;;;;;5.00;3.75;;;;;4.31;57.57;100828.94;4989430;28;45907;-83
2022/04/02 01:28:23;;;;;;;;;6.75;5.25;;;;;4.21;57.01;100821.41;4990232;28;45676;-83
2022/04/02 01:30:49;;;;;;;;;5.00;3.50;;;;;4.16;57.02;100810.72;4989768;28;45408;-83
2022/04/02 01:33:14;;;;;;;;;6.25;5.25;;;;;3.93;57.33;100777.19;4989691;28;45914;-83
2022/04/02 01:35:39;;;;;;;;;5.00;5.00;;;;;3.97;57.40;100795.66;4988651;28;45416;-83
2022/04/02 01:38:05;;;;;;;;;6.75;5.75;;;;;3.97;57.52;100799.97;4988973;28;45499;-83
2022/04/02 01:40:30;;;;;;;;;5.00;5.00;;;;;3.80;57.62;100775.56;4971772;28;45466;-83
2022/04/02 01:42:55;;;;;;;;;9.50;5.25;;;;;3.94;57.44;100797.19;4989494;28;45595;-83
2022/04/02 01:45:21;;;;;;;;;4.00;4.00;;;;;3.98;57.63;100810.47;4971563;28;45615;-83
2022/04/02 01:47:50;;;;;;;;;5.00;3.50;;;;;4.17;57.54;100848.00;4989564;28;45481;-82
2022/04/02 01:50:15;;;;;;;;;5.00;5.00;;;;;3.77;56.93;100777.94;4971392;28;45473;-83
2022/04/02 01:52:41;;;;;;;;;5.67;5.67;;;;;4.12;57.15;100853.81;4989829;28;45677;-83
2022/04/02 01:55:06;;;;;;;;;5.00;5.00;;;;;3.78;57.13;100791.03;4988878;28;45416;-82
2022/04/02 01:57:32;;;;;;;;;3.50;3.50;;;;;3.92;57.38;100825.69;4987832;28;47520;-83
2022/04/02 01:59:57;;;;;;;;;5.00;5.00;;;;;4.08;56.99;100858.75;4971168;28;45431;-83
2022/04/02 02:02:22;;;;;;;;;4.50;4.50;;;;;3.91;57.30;100828.22;4989190;28;45764;-82
2022/04/02 02:04:48;;;;;;;;;2.00;2.00;;;;;3.77;56.89;100815.22;4971662;28;45658;-83
2022/04/02 02:07:14;;;;;;;;;7.75;6.00;;;;;3.77;57.03;100814.34;4988958;28;45473;-82
2022/04/02 02:09:39;;;;;;;;;3.25;2.00;;;;;3.98;56.46;100852.06;4989725;28;45632;-83
2022/04/02 02:12:05;;;;;;;;;2.00;1.00;;;;;3.96;57.08;100864.09;4987433;28;45366;-83
2022/04/02 02:14:31;;;;;;;;;6.00;5.00;;;;;3.97;56.95;100860.69;4989168;28;45428;-83
2022/04/02 02:16:57;;;;;;;;;4.75;4.00;;;;;4.03;56.90;100874.06;4989167;28;45629;-83
2022/04/02 02:19:22;;;;;;;;;5.00;5.00;;;;;3.77;56.95;100835.13;4989239;28;45477;-83
2022/04/02 02:21:48;;;;;;;;;8.00;6.00;;;;;3.69;56.87;100820.75;4989432;28;45786;-83
2022/04/02 02:24:13;;;;;;;;;3.25;3.25;;;;;3.80;57.29;100846.63;4971344;28;45651;-83
2022/04/02 02:26:39;;;;;;;;;5.75;4.75;;;;;3.48;57.03;100784.81;4989130;28;45499;-83
2022/04/02 02:29:06;;;;;;;;;4.50;4.50;;;;;3.98;56.96;100870.28;4988725;28;45381;-83
2022/04/02 02:31:32;;;;;;;;;5.00;4.75;;;;;3.72;57.02;100828.75;4971587;28;45836;-83
2022/04/02 02:36:42;;;;;;;;;3.75;3.50;;;;;3.93;56.95;100870.78;4988854;28;45820;-83
2022/04/02 02:39:07;;;;;;;;;5.00;5.00;;;;;3.64;57.14;100830.84;4988943;28;45376;-83
2022/04/02 02:41:33;;;;;;;;;5.67;5.00;;;;;3.71;56.91;100846.06;4988842;28;45482;-83
2022/04/02 02:43:59;;;;;;;;;5.75;5.00;;;;;3.63;56.85;100831.66;4988672;28;45468;-83
2022/04/02 02:46:24;;;;;;;;;5.00;4.00;;;;;3.61;56.74;100828.97;4991025;28;45772;-83
2022/04/02 02:48:50;;;;;;;;;5.00;5.00;;;;;3.68;57.04;100851.03;4974445;28;45474;-83
2022/04/02 02:51:15;;;;;;;;;5.00;3.00;;;;;3.50;56.73;100817.00;4991861;28;45472;-83
2022/04/02 02:53:41;;;;;;;;;5.25;5.25;;;;;3.68;57.07;100848.44;4992516;28;45353;-83
2022/04/02 02:56:06;;;;;;;;;5.75;5.25;;;;;3.46;57.40;100825.41;4991483;28;46101;-82
2022/04/02 02:58:32;;;;;;;;;6.00;6.00;;;;;3.66;57.04;100865.66;4974225;28;45867;-83
2022/04/02 03:00:58;;;;;;;;;4.75;4.75;;;;;3.73;57.22;100875.63;4991878;28;45890;-83
2022/04/02 03:03:23;;;;;;;;;7.25;5.50;;;;;3.53;57.40;100850.97;4974321;28;45553;-83
2022/04/02 03:05:49;;;;;;;;;5.00;5.00;;;;;3.31;57.36;100811.44;4991893;28;45537;-83
2022/04/02 03:08:16;;;;;;;;;7.25;6.00;;;;;3.47;57.20;100845.38;4991671;28;45541;-83
2022/04/02 03:10:42;;;;;;;;;5.75;5.25;;;;;3.27;57.19;100825.00;4990406;28;45504;-83
2022/04/02 03:13:08;;;;;;;;;6.00;5.00;;;;;3.43;57.43;100858.97;4991721;28;45734;-83
2022/04/02 03:15:34;;;;;;;;;5.75;5.75;;;;;3.71;57.36;100910.13;4974236;28;48749;-83
2022/04/02 03:18:05;;;;;;;;;7.50;7.00;;;;;3.61;57.63;100895.66;4973792;28;45930;-83
2022/04/02 03:20:30;;;;;;;;;8.00;8.00;;;;;3.69;57.25;100910.00;4991718;28;45668;-83
2022/04/02 03:22:56;;;;;;;;;8.50;6.00;;;;;3.58;57.32;100895.44;4991601;28;45585;-83
2022/04/02 03:25:21;;;;;;;;;6.25;5.25;;;;;3.30;57.45;100835.59;4973062;28;47148;-83
2022/04/02 03:27:47;;;;;;;;;5.67;5.33;;;;;3.17;57.50;100830.41;4989894;28;47676;-83
2022/04/02 03:30:15;;;;;;;;;6.00;5.50;;;;;3.55;57.35;100895.25;4991477;28;45696;-82
2022/04/02 03:32:41;;;;;;;;;6.75;6.00;;;;;3.33;57.86;100866.97;4991811;28;45476;-83
2022/04/02 03:35:08;;;;;;;;;7.75;7.00;;;;;3.53;58.28;100904.63;4972955;28;48152;-83
2022/04/02 03:37:37;;;;;;;;;8.25;7.00;;;;;3.58;57.50;100911.03;4992108;28;45622;-83
2022/04/02 03:40:05;;;;;;;;;5.50;4.75;;;;;3.37;57.44;100884.56;4990822;28;45486;-83
2022/04/02 03:42:31;;;;;;;;;8.00;6.50;;;;;3.30;57.89;100869.34;4991484;28;45452;-83
2022/04/02 03:44:56;;;;;;;;;6.00;5.00;;;;;3.22;57.72;100863.66;4991230;28;45920;-83
2022/04/02 03:47:22;;;;;;;;;5.00;4.50;;;;;3.20;57.97;100860.09;4973525;28;45875;-83
2022/04/02 03:49:49;;;;;;;;;5.50;5.00;;;;;3.38;58.19;100901.94;4991188;28;45704;-83
2022/04/02 03:52:15;;;;;;;;;7.50;7.50;;;;;3.49;57.73;100921.72;4991025;28;45460;-83
2022/04/02 03:54:41;;;;;;;;;6.25;6.25;;;;;3.36;57.84;100899.25;4991321;28;46309;-83
2022/04/02 03:57:07;;;;;;;;;6.75;5.50;;;;;3.19;58.20;100867.75;4972092;28;46023;-83
2022/04/02 03:59:33;;;;;;;;;9.00;8.00;;;;;3.01;58.17;100847.59;4991662;28;46110;-83
2022/04/02 04:01:59;;;;;;;;;8.00;5.75;;;;;3.14;57.98;100871.75;4973151;28;45488;-83
2022/04/02 04:04:25;;;;;;;;;6.75;5.50;;;;;3.41;58.19;100922.03;4989164;28;45413;-83
2022/04/02 04:06:51;;;;;;;;;9.00;9.00;;;;;3.32;58.25;100914.53;4991048;28;45774;-83
2022/04/02 04:09:17;;;;;;;;;8.25;6.00;;;;;3.07;58.78;100868.75;4990517;28;45823;-83
2022/04/02 04:11:42;;;;;;;;;7.75;6.00;;;;;3.32;57.92;100915.41;4991042;28;45523;-83
2022/04/02 04:14:08;;;;;;;;;10.50;8.00;;;;;3.00;58.26;100863.94;4972818;28;47074;-83
2022/04/02 04:16:34;;;;;;;;;8.25;7.00;;;;;3.34;58.33;100924.19;4991119;28;45414;-83
2022/04/02 04:18:59;;;;;;;;;6.00;5.25;;;;;3.12;58.46;100887.25;4972505;28;45438;-83
2022/04/02 04:21:24;;;;;;;;;9.50;8.75;;;;;3.00;58.52;100871.72;4990784;28;45599;-83
2022/04/02 04:23:50;;;;;;;;;7.75;7.25;;;;;3.07;58.04;100888.63;4972899;28;47871;-83
2022/04/02 04:26:16;;;;;;;;;7.75;6.75;;;;;3.28;58.30;100925.50;4972042;28;45837;-82
2022/04/02 04:28:41;;;;;;;;;10.00;9.00;;;;;3.22;58.56;100915.63;4991071;28;45341;-83
2022/04/02 04:31:07;;;;;;;;;5.25;5.00;;;;;3.10;58.50;100900.13;4972959;28;45406;-83
2022/04/02 04:33:34;;;;;;;;;6.50;5.50;;;;;2.99;58.42;100882.91;4990986;28;45319;-83
2022/04/02 04:36:00;;;;;;;;;5.00;4.00;;;;;3.17;58.38;100911.81;4990012;28;45448;-82
2022/04/02 04:38:25;;;;;;;;;8.00;6.00;;;;;3.11;58.79;100924.41;4990716;28;45887;-82
2022/04/02 04:40:50;;;;;;;;;8.00;6.00;;;;;3.17;58.61;100911.81;4990564;28;45770;-83
2022/04/02 04:43:16;;;;;;;;;8.33;8.00;;;;;3.13;58.59;100925.38;4972005;28;47023;-83
2022/04/02 04:45:41;;;;;;;;;7.33;5.67;;;;;3.05;58.61;100896.31;4991027;28;45365;-83
2022/04/02 04:48:07;;;;;;;;;7.75;7.25;;;;;3.13;58.77;100917.59;4990423;28;45794;-83
2022/04/02 04:50:34;;;;;;;;;5.50;5.00;;;;;3.18;58.38;100930.88;4972299;28;45632;-83
2022/04/02 04:52:59;;;;;;;;;6.00;6.00;;;;;3.37;58.66;100954.69;4990289;28;45475;-83
2022/04/02 04:55:25;;;;;;;;;5.00;4.75;;;;;3.09;58.52;100918.19;4972436;28;45604;-83
2022/04/02 04:57:50;;;;;;;;;5.67;5.00;;;;;3.14;58.65;100932.38;4988815;28;45432;-83
2022/04/02 05:00:17;;;;;;;;;8.00;6.00;;;;;3.00;58.51;100901.97;4989877;28;45651;-82
2022/04/02 05:02:45;;;;;;;;;8.50;7.25;;;;;3.08;58.71;100940.66;4990729;28;46841;-83
2022/04/02 05:05:14;;;;;;;;;8.25;6.75;;;;;3.13;58.62;100940.06;4989427;28;46165;-83
2022/04/02 05:07:40;;;;;;;;;6.75;5.25;;;;;3.30;58.81;100975.84;4972633;28;45559;-83
2022/04/02 05:10:08;;;;;;;;;9.00;9.00;;;;;3.37;58.88;100991.06;4988692;28;45444;-83
2022/04/02 05:12:34;;;;;;;;;8.00;6.25;;;;;3.18;58.89;100969.84;4972064;28;47275;-83
2022/04/02 05:14:59;;;;;;;;;8.75;7.50;;;;;3.02;58.83;100939.34;4972071;28;45618;-83
2022/04/02 05:17:25;;;;;;;;;7.50;6.00;;;;;3.25;58.97;100983.34;4972109;28;45503;-83
2022/04/02 05:19:51;;;;;;;;;7.50;6.00;;;;;3.00;58.82;100943.53;4988084;28;45611;-83
2022/04/02 05:22:16;;;;;;;;;8.00;7.00;;;;;2.95;58.75;100944.91;4989481;28;45837;-83
2022/04/02 05:24:42;;;;;;;;;9.00;7.25;;;;;3.06;58.81;100975.13;4989786;28;45797;-83
2022/04/02 05:27:07;;;;;;;;;7.25;7.25;;;;;3.13;58.75;100979.91;4971744;28;45710;-83
2022/04/02 05:29:32;;;;;;;;;8.75;8.00;;;;;3.27;59.02;101020.72;4972486;28;45687;-83
2022/04/02 05:31:58;;;;;;;;;6.00;6.00;;;;;3.05;59.10;100969.03;4971614;28;47652;-82
2022/04/02 05:34:24;;;;;;;;;6.25;6.25;;;;;2.73;58.90;100927.00;4988106;28;45496;-83
2022/04/02 05:36:49;;;;;;;;;8.25;6.75;;;;;3.25;59.02;101035.31;4989865;28;47267;-83
2022/04/02 05:39:14;;;;;;;;;8.50;8.00;;;;;3.01;58.85;100987.78;4987656;28;45496;-83
2022/04/02 05:41:40;;;;;;;;;8.50;7.00;;;;;2.80;58.96;100952.53;4971653;28;47422;-83
2022/04/02 05:44:07;;;;;;;;;9.00;8.25;;;;;3.17;59.15;101005.31;4989499;28;45662;-83
2022/04/02 05:46:32;;;;;;;;;7.00;6.00;;;;;2.95;58.83;100976.06;4990114;28;45291;-83
2022/04/02 05:48:58;;;;;;;;;7.75;7.75;;;;;2.93;58.52;100973.38;4989339;28;45519;-83
2022/04/02 05:51:24;;;;;;;;;6.50;6.50;;;;;3.21;58.77;101035.00;4971754;28;48194;-83
2022/04/02 05:53:49;;;;;;;;;9.00;9.00;;;;;3.27;58.81;101035.41;4989515;28;45532;-83
2022/04/02 05:56:14;;;;;;;;;8.25;8.00;;;;;2.96;59.05;100981.38;4988705;28;45541;-83
2022/04/02 05:58:41;;;;;;;;;7.75;6.50;;;;;2.97;58.82;100983.19;4989792;28;45459;-82
2022/04/02 06:01:07;;;;;;;;;8.75;5.75;;;;;2.95;58.61;100986.44;4971069;28;47289;-83
2022/04/02 06:03:33;;;;;;;;;8.75;7.00;;;;;3.31;58.87;101033.13;4971317;28;45633;-83
2022/04/02 06:05:58;;;;;;;;;8.00;6.00;;;;;3.28;59.01;101051.09;4989385;28;45631;-83
2022/04/02 06:08:24;;;;;;;;;10.25;8.75;;;;;2.94;58.94;100982.94;4989712;28;45672;-83
2022/04/02 06:10:49;;;;;;;;;8.00;8.00;;;;;3.01;58.96;100995.56;4988687;28;45829;-83
2022/04/02 06:13:14;;;;;;;;;6.00;6.00;;;;;2.99;59.05;101004.94;4989227;28;45586;-82
2022/04/02 06:15:40;;;;;;;;;9.00;7.75;;;;;3.20;58.86;101028.91;4989681;28;45529;-82
2022/04/02 06:18:07;;;;;;;;;8.25;7.50;;;;;3.17;58.65;101014.78;4988721;28;45539;-83
2022/04/02 06:20:33;;;;;;;;;9.25;8.75;;;;;3.00;59.09;100998.94;4989963;28;46776;-83
2022/04/02 06:22:59;;;;;;;;;8.00;6.00;;;;;3.35;58.47;101052.41;4974369;28;45699;-83
2022/04/02 06:25:24;;;;;;;;;9.25;9.00;;;;;3.25;58.63;101024.91;4992291;28;45513;-83
2022/04/02 06:27:50;;;;;;;;;10.00;9.00;;;;;3.22;58.42;101029.00;4974849;28;45493;-82
2022/04/02 06:30:18;;;;;;;;;9.00;8.25;;;;;3.42;58.65;101054.63;4992483;28;45466;-83
2022/04/02 06:32:44;;;;;;;;;8.25;6.00;;;;;3.28;58.48;101026.81;4974699;28;45620;-83
2022/04/02 06:35:09;;;;;;;;;7.00;5.50;;;;;3.51;58.55;101075.13;4992388;28;45354;-83
2022/04/02 06:37:36;;;;;;;;;8.50;8.00;;;;;3.36;58.63;101033.44;4992832;28;45557;-83
2022/04/02 06:40:04;;;;;;;;;8.50;8.00;;;;;3.48;58.80;101055.03;4991263;28;46214;-83
2022/04/02 06:42:29;;;;;;;;;6.50;5.50;;;;;3.36;58.55;101017.84;4990906;28;45649;-83
2022/04/02 06:44:55;;;;;;;;;8.00;8.00;;;;;3.43;58.46;101027.84;4992618;28;45462;-83
2022/04/02 06:47:28;;;;;;;;;6.00;5.00;;;;;3.59;58.66;101054.03;4992100;28;45616;-83
2022/04/02 06:49:55;;;;;;;;;9.00;7.25;;;;;3.50;58.51;101036.97;4991946;28;46459;-83
2022/04/02 06:52:21;;;;;;;;;6.00;6.00;;;;;3.46;58.56;101019.38;4992122;28;45822;-82
2022/04/02 06:54:47;;;;;;;;;6.00;6.00;;;;;3.56;58.35;101026.97;4974167;28;45622;-83
2022/04/02 06:57:20;;;;;;;;;6.00;5.75;;;;;3.77;58.12;101074.28;4992164;28;45484;-83
2022/04/02 06:59:46;;;;;;;;;6.75;6.00;;;;;3.79;57.99;101071.00;4992287;28;45562;-83
2022/04/02 07:02:11;;;;;;;;;8.75;7.25;;;;;3.72;58.24;101060.09;4991325;28;45408;-83
2022/04/02 07:04:36;;;;;;;;;5.00;5.00;;;;;3.98;57.69;101096.50;4991002;28;45628;-83
2022/04/02 07:07:03;;;;;;;;;7.25;6.75;;;;;3.76;58.03;101056.91;4974396;28;45592;-83
2022/04/02 07:09:29;;;;;;;;;8.75;7.75;;;;;3.68;58.06;101034.69;4991509;28;45579;-83
2022/04/02 07:11:55;;;;;;;;;9.00;8.00;;;;;3.73;58.07;101047.19;4991895;28;45658;-83
2022/04/02 07:14:21;;;;;;;;;3.75;3.75;;;;;3.82;58.08;101049.50;4992120;28;45431;-83
2022/04/02 07:16:47;;;;;;;;;5.75;5.75;;;;;3.66;57.91;101011.19;4973931;28;45636;-83
2022/04/02 07:19:13;;;;;;;;;7.00;5.00;;;;;3.91;57.75;101055.31;4991052;28;45754;-83
2022/04/02 07:21:41;;;;;;;;;6.50;6.50;;;;;3.76;57.46;101017.91;4974020;28;45464;-83
2022/04/02 07:24:07;;;;;;;;;6.25;5.25;;;;;4.08;57.51;101067.69;4990977;28;45471;-83
2022/04/02 07:26:32;;;;;;;;;8.50;6.00;;;;;4.30;57.37;101093.44;4974317;28;45454;-83
2022/04/02 07:28:59;;;;;;;;;8.25;7.25;;;;;4.11;57.09;101056.63;4973910;28;46381;-83
2022/04/02 07:31:24;;;;;;;;;6.00;6.00;;;;;4.21;57.57;101072.00;4991164;28;45472;-83
2022/04/02 07:33:50;;;;;;;;;6.67;6.33;;;;;4.09;56.96;101038.31;4973304;28;45684;-83
2022/04/02 07:36:34;;;;;;;;;8.75;7.25;;;;;4.59;56.77;101128.25;4973337;28;45717;-83
2022/04/02 07:39:13;;;;;;;;;5.00;5.00;;;;;4.53;56.67;101092.31;4990372;28;46757;-83
2022/04/02 07:41:44;;;;;;;;;4.75;4.75;;;;;4.66;56.09;101115.72;4991858;28;45707;-83
2022/04/02 07:44:47;;;;;;;;;6.00;5.75;;;;;4.39;55.98;101082.72;4991411;28;45524;-83
2022/04/02 07:47:14;;;;;;;;;5.00;5.00;;;;;4.74;55.73;101130.94;4991155;28;45861;-83
2022/04/02 07:49:44;;;;;;;;;6.00;5.00;;;;;4.59;55.33;101090.09;4991408;28;46446;-83
2022/04/02 07:52:11;;;;;;;;;3.00;3.00;;;;;4.39;54.82;101069.72;4989738;28;45532;-83
2022/04/02 07:54:41;;;;;;;;;5.75;4.75;;;;;4.77;54.78;101138.94;4991018;28;45788;-83
2022/04/02 07:57:08;;;;;;;;;4.75;4.50;;;;;4.37;54.84;101051.38;4991310;28;45774;-83
2022/04/02 07:59:42;;;;;;;;;3.50;3.50;;;;;4.64;54.53;101104.31;4973345;28;47744;-83
2022/04/02 08:02:36;;;;;;;;;6.75;6.00;;;;;4.85;54.67;101123.00;4990395;28;45750;-83
2022/04/02 08:05:02;;;;;;;;;5.00;4.75;;;;;4.79;54.81;101109.59;4990699;28;45564;-83
2022/04/02 08:07:32;;;;;;;;;6.50;6.25;;;;;4.75;54.67;101106.69;4991640;28;45368;-83
2022/04/02 08:09:59;;;;;;;;;6.00;6.00;;;;;4.69;54.16;101091.59;4988655;28;48021;-83
2022/04/02 08:12:25;;;;;;;;;2.00;1.00;;;;;4.40;54.21;101040.28;4991425;28;46223;-83
2022/04/02 08:14:51;;;;;;;;;7.50;6.00;;;;;4.45;53.69;101048.38;4991129;28;45705;-83
2022/04/02 08:17:18;;;;;;;;;6.00;6.00;;;;;4.84;53.78;101126.41;4972729;28;45436;-83
2022/04/02 08:19:44;;;;;;;;;5.25;5.25;;;;;4.95;53.89;101126.19;4991185;28;46364;-83
2022/04/02 08:22:09;;;;;;;;;4.75;4.50;;;;;5.00;54.03;101128.28;4990630;28;45470;-83
2022/04/02 08:24:34;;;;;;;;;10.25;9.75;;;;;4.90;54.02;101105.06;4972767;28;45538;-83
2022/04/02 08:27:03;;;;;;;;;4.33;4.33;;;;;5.16;54.32;101148.34;4990934;28;45694;-83
2022/04/02 08:30:05;;;;;;;;;5.00;5.00;;;;;5.23;54.10;101160.09;4990889;28;45571;-83
2022/04/02 08:32:57;;;;;;;;;6.00;5.75;;;;;5.26;53.45;101158.53;4990804;28;45636;-83
2022/04/02 08:36:05;;;;;;;;;7.50;7.50;;;;;5.27;53.30;101159.44;4989159;28;45878;-83
2022/04/02 08:38:48;;;;;;;;;4.50;4.50;;;;;5.11;52.74;101126.31;4956739;28;45424;-83
2022/04/02 08:41:41;;;;;;;;;6.00;6.00;;;;;5.31;52.98;101161.44;4990447;28;45415;-83
2022/04/02 08:44:38;;;;;;;;;5.75;5.75;;;;;5.30;52.55;101152.72;4990219;28;45755;-83
2022/04/02 08:47:25;;;;;;;;;6.25;6.00;;;;;5.33;52.38;101157.25;4990228;28;45417;-83
2022/04/02 08:50:12;;;;;;;;;6.75;5.50;;;;;5.39;52.10;101150.69;4990581;28;45627;-83
2022/04/02 08:52:58;;;;;;;;;6.50;5.00;;;;;5.46;51.80;101171.91;4972532;28;46207;-83
2022/04/02 08:55:45;;;;;;;;;5.25;5.25;;;;;5.17;51.60;101106.78;4975568;28;45988;-83
2022/04/02 08:58:22;;;;;;;;;3.00;3.00;;;;;5.16;51.62;101091.94;4990287;28;46124;-83
2022/04/02 09:01:05;;;;;;;;;5.00;5.00;;;;;5.58;51.43;101157.94;4989974;28;45548;-83
2022/04/02 09:03:49;;;;;;;;;4.50;4.50;;;;;5.65;51.38;101162.72;4990411;28;45589;-83
2022/04/02 09:06:42;;;;;;;;;5.25;5.00;;;;;5.63;51.46;101151.28;4990172;28;45776;-83
2022/04/02 09:09:34;;;;;;;;;3.00;3.00;;;;;5.36;50.71;101094.84;4971682;28;45714;-82
2022/04/02 09:12:27;;;;;;;;;4.25;4.25;;;;;5.53;51.09;101109.84;4968221;28;45564;-83
2022/04/02 09:14:59;;;;;;;;;5.25;4.50;;;;;5.89;50.84;101167.59;4988057;28;47251;-83
2022/04/02 09:18:01;;;;;;;;;5.00;5.00;;;;;6.07;50.77;101158.31;4989968;28;45788;-83
2022/04/02 09:20:45;;;;;;;;;6.25;6.25;;;;;6.21;50.71;101161.75;4990383;28;45531;-83
2022/04/02 09:23:34;;;;;;;;;5.50;5.00;;;;;6.15;50.36;101141.38;4989281;28;45793;-83
2022/04/02 09:26:12;;;;;;;;;5.00;5.00;;;;;6.35;49.86;101159.91;4971014;28;47954;-83
2022/04/02 09:29:15;;;;;;;;;6.50;5.25;;;;;6.42;49.82;101162.97;4988968;28;45888;-83
2022/04/02 09:32:14;;;;;;;;;4.75;4.75;;;;;6.62;49.18;101171.94;4958890;28;45840;-83
2022/04/02 09:35:01;;;;;;;;;3.50;3.00;;;;;6.84;49.17;101170.53;4990079;28;45379;-83
2022/04/02 09:37:44;;;;;;;;;5.00;5.00;;;;;6.62;48.54;101097.94;4989490;28;46544;-83
2022/04/02 09:40:11;;;;;;;;;4.50;3.00;;;;;7.07;48.55;101162.28;4989214;28;45484;-83
2022/04/02 09:42:44;;;;;;;;;6.75;6.50;;;;;6.93;48.16;101138.00;4989977;28;45771;-83
2022/04/02 09:45:12;;;;;;;;;5.25;5.00;;;;;6.79;47.29;101131.09;4989484;28;45602;-83
2022/04/02 09:47:40;;;;;;;;;7.00;6.00;;;;;7.16;47.33;101188.94;4990115;28;46573;-83
2022/04/02 09:50:11;;;;;;;;;6.25;5.75;;;;;6.71;47.42;101109.78;4987597;28;46006;-83
2022/04/02 09:52:57;;;;;;;;;4.25;4.25;;;;;6.75;47.00;101096.88;4989565;28;45443;-83
2022/04/02 09:55:27;;;;;;;;;6.00;6.00;;;;;7.21;46.89;101155.19;4988513;28;45642;-84
2022/04/02 09:58:03;;;;;;;;;6.00;5.50;;;;;7.18;46.83;101127.16;4987990;28;48190;-83
2022/04/02 10:00:41;;;;;;;;;7.50;6.25;;;;;7.22;46.55;101129.13;4989215;28;46425;-83
2022/04/02 10:03:31;;;;;;;;;5.00;3.00;;;;;7.01;45.96;101114.91;4989304;28;45682;-83
2022/04/02 10:06:20;;;;;;;;;3.50;3.00;;;;;7.30;45.05;101184.47;4989252;28;45476;-83
2022/04/02 10:08:48;;;;;;;;;3.00;2.75;;;;;7.16;44.35;101185.41;4988796;28;45501;-83
2022/04/02 10:11:18;;;;;;;;;3.00;3.00;;;;;6.86;44.44;101146.31;4989028;28;45768;-83
2022/04/02 10:13:44;;;;;;;;;7.00;5.00;;;;;7.09;45.05;101176.31;4989631;28;45782;-83
2022/04/02 10:16:18;;;;;;;;;4.75;3.00;;;;;7.26;45.65;101148.50;4989194;28;45614;-83
2022/04/02 10:18:45;;;;;;;;;4.25;4.25;;;;;7.61;45.34;101153.00;4989421;28;45442;-84
2022/04/02 10:21:13;;;;;;;;;6.25;6.25;;;;;7.63;45.48;101104.25;4988929;28;46272;-83
2022/04/02 10:23:50;;;;;;;;;6.00;4.25;;;;;7.97;44.33;101129.56;4988875;28;45456;-84
2022/04/02 10:26:17;;;;;;;;;6.50;6.00;;;;;8.13;44.05;101155.72;4988904;28;45365;-83
2022/04/02 10:28:51;;;;;;;;;5.00;3.50;;;;;8.01;44.41;101145.50;4989189;28;45436;-83
2022/04/02 10:31:45;;;;;;;;;8.00;7.00;;;;;8.05;44.45;101167.50;4989037;28;45460;-83
2022/04/02 10:34:22;;;;;;;;;6.00;6.00;;;;;7.86;44.56;101170.88;4988860;28;45507;-83
2022/04/02 10:37:00;;;;;;;;;3.75;3.00;;;;;7.60;44.54;101151.22;4988678;28;45602;-83
2022/04/02 10:39:26;;;;;;;;;6.00;5.50;;;;;7.37;44.19;101134.28;4988674;28;45989;-83
2022/04/02 10:41:56;;;;;;;;;6.50;5.75;;;;;7.51;44.20;101171.63;4988991;28;45700;-83
2022/04/02 10:44:33;;;;;;;;;5.00;4.50;;;;;7.06;43.98;101092.53;4988903;28;45424;-83
2022/04/02 10:47:03;;;;;;;;;5.75;3.75;;;;;7.56;43.78;101145.72;4988768;28;45714;-83
2022/04/02 10:49:33;;;;;;;;;6.25;6.25;;;;;7.48;43.51;101108.69;4988840;28;46577;-83
2022/04/02 10:52:02;;;;;;;;;6.75;6.75;;;;;7.73;43.36;101148.44;4988122;28;45730;-83
2022/04/02 10:54:28;;;;;;;;;7.25;7.00;;;;;7.84;43.75;101122.81;4988651;28;45462;-83
2022/04/02 10:56:58;;;;;;;;;4.25;4.25;;;;;7.95;43.01;101116.41;4971198;28;45457;-83
2022/04/02 10:59:30;;;;;;;;;4.50;3.00;;;;;8.22;42.27;101158.78;4970359;28;48525;-84
2022/04/02 11:01:59;;;;;;;;;5.00;5.00;;;;;8.23;41.98;101180.66;4988227;28;45970;-83
2022/04/02 11:04:43;;;;;;;;;4.25;4.25;;;;;8.16;41.97;101171.56;4988779;28;45359;-83
2022/04/02 11:07:09;;;;;;;;;3.50;2.75;;;;;8.01;41.98;101160.31;4988333;28;45683;-83
2022/04/02 11:09:36;;;;;;;;;3.25;3.00;;;;;7.89;41.76;101139.66;4991838;28;46430;-83
2022/04/02 11:12:07;;;;;;;;;4.25;3.00;;;;;7.98;41.22;101168.91;4991705;28;45814;-84
2022/04/02 11:14:53;;;;;;;;;3.50;3.50;;;;;8.14;41.23;101148.75;4992054;28;45370;-83
2022/04/02 11:17:32;;;;;;;;;5.25;3.50;;;;;8.45;41.27;101159.97;4992032;28;45490;-83
2022/04/02 11:20:06;;;;;;;;;4.25;4.00;;;;;8.67;41.02;101172.41;4991311;28;45577;-83
2022/04/02 11:22:59;;;;;;;;;6.00;4.50;;;;;8.71;40.48;101163.84;4991639;28;45958;-83
2022/04/02 11:25:36;;;;;;;;;3.75;3.75;;;;;8.78;40.78;101162.47;4990348;28;45461;-83
2022/04/02 11:28:05;;;;;;;;;3.00;3.00;;;;;8.70;40.41;101172.56;4989887;28;45935;-83
2022/04/02 11:30:35;;;;;;;;;3.00;3.00;;;;;8.34;40.00;101127.09;4991720;28;45508;-83
2022/04/02 11:33:15;;;;;;;;;7.00;6.00;;;;;7.88;40.25;101079.34;4973402;28;46145;-83
2022/04/02 11:35:45;;;;;;;;;4.00;3.00;;;;;8.18;40.52;101137.63;4991699;28;45739;-84
2022/04/02 11:38:27;;;;;;;;;6.00;4.00;;;;;8.40;40.43;101160.56;4991723;28;45656;-83
2022/04/02 11:41:01;;;;;;;;;3.25;3.00;;;;;8.48;40.50;101161.84;4991027;28;45532;-83
2022/04/02 11:43:51;;;;;;;;;4.00;3.00;;;;;8.32;40.43;101167.09;4989679;28;45736;-83
2022/04/02 11:46:19;;;;;;;;;6.00;4.00;;;;;8.33;40.04;101176.78;4991034;28;45441;-83